sensor_id;sensor_type;location;lat;lon;timestamp;P1;durP1;ratioP1;P2;durP2;ratioP2
59006;SDS011;44792;52.760;6.726;2022-09-27T00:02:15;5.38;;;2.10;;
59006;SDS011;44792;52.760;6.726;2022-09-27T00:04:40;10.30;;;2.65;;
59006;SDS011;44792;52.760;6.726;2022-09-27T00:07:06;6.80;;;2.35;;
59006;SDS011;44792;52.760;6.726;2022-09-27T00:09:32;8.75;;;2.00;;
59006;SDS011;44792;52.760;6.726;2022-09-27T00:11:58;6.20;;;1.80;;
59006;SDS011;44792;52.760;6.726;2022-09-27T00:14:23;9.50;;;1.90;;
59006;SDS011;44792;52.760;6.726;2022-09-27T00:16:51;9.82;;;1.60;;
59006;SDS011;44792;52.760;6.726;2022-09-27T00:19:18;6.30;;;1.80;;
59006;SDS011;44792;52.760;6.726;2022-09-27T00:21:46;10.18;;;1.70;;
59006;SDS011;44792;52.760;6.726;2022-09-27T00:24:14;5.47;;;2.00;;
59006;SDS011;44792;52.760;6.726;2022-09-27T00:26:42;4.45;;;1.55;;
59006;SDS011;44792;52.760;6.726;2022-09-27T00:29:08;8.82;;;1.52;;
59006;SDS011;44792;52.760;6.726;2022-09-27T00:31:35;8.55;;;1.38;;
59006;SDS011;44792;52.760;6.726;2022-09-27T00:34:02;5.22;;;1.35;;
59006;SDS011;44792;52.760;6.726;2022-09-27T00:36:29;5.15;;;1.50;;
59006;SDS011;44792;52.760;6.726;2022-09-27T00:38:56;9.00;;;1.55;;
59006;SDS011;44792;52.760;6.726;2022-09-27T00:41:24;5.72;;;1.27;;
59006;SDS011;44792;52.760;6.726;2022-09-27T00:43:59;3.47;;;1.65;;
59006;SDS011;44792;52.760;6.726;2022-09-27T00:46:44;5.15;;;1.42;;
59006;SDS011;44792;52.760;6.726;2022-09-27T00:51:46;6.20;;;1.55;;
59006;SDS011;44792;52.760;6.726;2022-09-27T00:54:18;9.95;;;1.67;;
59006;SDS011;44792;52.760;6.726;2022-09-27T00:56:45;9.15;;;1.48;;
59006;SDS011;44792;52.760;6.726;2022-09-27T00:59:56;6.93;;;1.50;;
59006;SDS011;44792;52.760;6.726;2022-09-27T01:02:11;2.95;;;1.20;;
59006;SDS011;44792;52.760;6.726;2022-09-27T01:04:37;5.60;;;1.70;;
59006;SDS011;44792;52.760;6.726;2022-09-27T01:07:04;6.28;;;1.45;;
59006;SDS011;44792;52.760;6.726;2022-09-27T01:09:30;9.23;;;1.98;;
59006;SDS011;44792;52.760;6.726;2022-09-27T01:12:00;4.10;;;1.42;;
59006;SDS011;44792;52.760;6.726;2022-09-27T01:18:11;4.18;;;1.40;;
59006;SDS011;44792;52.760;6.726;2022-09-27T01:28:55;2.60;;;1.23;;
59006;SDS011;44792;52.760;6.726;2022-09-27T01:31:29;6.27;;;1.30;;
59006;SDS011;44792;52.760;6.726;2022-09-27T01:34:24;3.47;;;1.40;;
59006;SDS011;44792;52.760;6.726;2022-09-27T01:37:23;3.45;;;1.35;;
59006;SDS011;44792;52.760;6.726;2022-09-27T01:40:01;5.75;;;1.35;;
59006;SDS011;44792;52.760;6.726;2022-09-27T01:42:56;4.38;;;1.45;;
59006;SDS011;44792;52.760;6.726;2022-09-27T01:45:33;2.08;;;1.17;;
59006;SDS011;44792;52.760;6.726;2022-09-27T01:48:03;4.43;;;1.50;;
59006;SDS011;44792;52.760;6.726;2022-09-27T01:51:02;4.15;;;2.15;;
59006;SDS011;44792;52.760;6.726;2022-09-27T01:53:40;3.88;;;1.42;;
59006;SDS011;44792;52.760;6.726;2022-09-27T01:59:05;4.45;;;1.10;;
59006;SDS011;44792;52.760;6.726;2022-09-27T02:01:34;3.40;;;1.42;;
59006;SDS011;44792;52.760;6.726;2022-09-27T02:04:02;4.18;;;1.10;;
59006;SDS011;44792;52.760;6.726;2022-09-27T02:06:30;3.35;;;1.10;;
59006;SDS011;44792;52.760;6.726;2022-09-27T02:09:46;4.72;;;1.10;;
59006;SDS011;44792;52.760;6.726;2022-09-27T02:11:51;2.70;;;1.10;;
59006;SDS011;44792;52.760;6.726;2022-09-27T02:14:28;5.53;;;1.25;;
59006;SDS011;44792;52.760;6.726;2022-09-27T02:24:52;5.30;;;1.10;;
59006;SDS011;44792;52.760;6.726;2022-09-27T02:27:36;3.65;;;1.20;;
59006;SDS011;44792;52.760;6.726;2022-09-27T02:30:14;6.43;;;1.60;;
59006;SDS011;44792;52.760;6.726;2022-09-27T02:32:41;4.43;;;2.10;;
59006;SDS011;44792;52.760;6.726;2022-09-27T02:37:54;4.05;;;1.35;;
59006;SDS011;44792;52.760;6.726;2022-09-27T02:40:20;3.95;;;1.20;;
59006;SDS011;44792;52.760;6.726;2022-09-27T02:42:46;3.85;;;1.00;;
59006;SDS011;44792;52.760;6.726;2022-09-27T02:45:12;9.05;;;1.48;;
59006;SDS011;44792;52.760;6.726;2022-09-27T02:47:44;3.80;;;1.10;;
59006;SDS011;44792;52.760;6.726;2022-09-27T02:56:15;4.55;;;1.33;;
59006;SDS011;44792;52.760;6.726;2022-09-27T03:04:58;5.93;;;1.10;;
59006;SDS011;44792;52.760;6.726;2022-09-27T03:07:31;3.55;;;1.17;;
59006;SDS011;44792;52.760;6.726;2022-09-27T03:09:58;5.53;;;1.25;;
59006;SDS011;44792;52.760;6.726;2022-09-27T03:12:23;1.65;;;0.90;;
59006;SDS011;44792;52.760;6.726;2022-09-27T03:14:58;4.38;;;1.00;;
59006;SDS011;44792;52.760;6.726;2022-09-27T03:17:24;4.65;;;1.00;;
59006;SDS011;44792;52.760;6.726;2022-09-27T03:19:50;1.17;;;1.13;;
59006;SDS011;44792;52.760;6.726;2022-09-27T03:22:16;2.88;;;1.05;;
59006;SDS011;44792;52.760;6.726;2022-09-27T03:24:42;7.85;;;1.17;;
59006;SDS011;44792;52.760;6.726;2022-09-27T03:27:07;4.00;;;1.00;;
59006;SDS011;44792;52.760;6.726;2022-09-27T03:29:35;7.90;;;1.20;;
59006;SDS011;44792;52.760;6.726;2022-09-27T03:32:01;1.10;;;0.93;;
59006;SDS011;44792;52.760;6.726;2022-09-27T03:34:27;3.25;;;1.30;;
59006;SDS011;44792;52.760;6.726;2022-09-27T03:36:53;1.25;;;1.10;;
59006;SDS011;44792;52.760;6.726;2022-09-27T03:39:18;2.60;;;1.15;;
59006;SDS011;44792;52.760;6.726;2022-09-27T03:41:44;2.17;;;1.25;;
59006;SDS011;44792;52.760;6.726;2022-09-27T03:44:09;4.45;;;1.13;;
59006;SDS011;44792;52.760;6.726;2022-09-27T03:46:35;4.88;;;1.17;;
59006;SDS011;44792;52.760;6.726;2022-09-27T03:49:00;2.10;;;1.05;;
59006;SDS011;44792;52.760;6.726;2022-09-27T03:51:26;1.48;;;1.00;;
59006;SDS011;44792;52.760;6.726;2022-09-27T03:53:52;1.33;;;1.00;;
59006;SDS011;44792;52.760;6.726;2022-09-27T03:56:17;3.67;;;1.02;;
59006;SDS011;44792;52.760;6.726;2022-09-27T03:58:43;2.78;;;1.23;;
59006;SDS011;44792;52.760;6.726;2022-09-27T04:01:09;4.05;;;1.00;;
59006;SDS011;44792;52.760;6.726;2022-09-27T04:03:34;2.05;;;0.90;;
59006;SDS011;44792;52.760;6.726;2022-09-27T04:06:00;2.38;;;0.90;;
59006;SDS011;44792;52.760;6.726;2022-09-27T04:08:27;2.38;;;1.00;;
59006;SDS011;44792;52.760;6.726;2022-09-27T04:10:54;4.30;;;1.10;;
59006;SDS011;44792;52.760;6.726;2022-09-27T04:13:19;4.53;;;1.30;;
59006;SDS011;44792;52.760;6.726;2022-09-27T04:15:45;2.60;;;1.30;;
59006;SDS011;44792;52.760;6.726;2022-09-27T04:18:11;4.55;;;1.05;;
59006;SDS011;44792;52.760;6.726;2022-09-27T04:20:36;5.63;;;1.35;;
59006;SDS011;44792;52.760;6.726;2022-09-27T04:23:02;1.10;;;1.05;;
59006;SDS011;44792;52.760;6.726;2022-09-27T04:25:28;7.65;;;1.13;;
59006;SDS011;44792;52.760;6.726;2022-09-27T04:27:53;3.08;;;1.13;;
59006;SDS011;44792;52.760;6.726;2022-09-27T04:30:19;2.25;;;1.13;;
59006;SDS011;44792;52.760;6.726;2022-09-27T04:32:46;2.90;;;1.13;;
59006;SDS011;44792;52.760;6.726;2022-09-27T04:35:12;3.50;;;1.08;;
59006;SDS011;44792;52.760;6.726;2022-09-27T04:37:57;3.65;;;1.05;;
59006;SDS011;44792;52.760;6.726;2022-09-27T04:40:23;2.78;;;1.58;;
59006;SDS011;44792;52.760;6.726;2022-09-27T04:42:49;4.43;;;1.33;;
59006;SDS011;44792;52.760;6.726;2022-09-27T04:45:15;2.03;;;1.08;;
59006;SDS011;44792;52.760;6.726;2022-09-27T04:47:45;4.60;;;0.98;;
59006;SDS011;44792;52.760;6.726;2022-09-27T04:50:12;3.53;;;1.15;;
59006;SDS011;44792;52.760;6.726;2022-09-27T04:52:39;2.17;;;0.85;;
59006;SDS011;44792;52.760;6.726;2022-09-27T04:55:05;4.97;;;1.58;;
59006;SDS011;44792;52.760;6.726;2022-09-27T04:57:31;5.65;;;1.10;;
59006;SDS011;44792;52.760;6.726;2022-09-27T04:59:57;5.03;;;1.15;;
59006;SDS011;44792;52.760;6.726;2022-09-27T05:02:24;4.82;;;1.17;;
59006;SDS011;44792;52.760;6.726;2022-09-27T05:04:51;2.53;;;1.20;;
59006;SDS011;44792;52.760;6.726;2022-09-27T05:07:17;4.65;;;1.33;;
59006;SDS011;44792;52.760;6.726;2022-09-27T05:09:43;6.40;;;1.33;;
59006;SDS011;44792;52.760;6.726;2022-09-27T05:12:09;10.43;;;1.30;;
59006;SDS011;44792;52.760;6.726;2022-09-27T05:14:35;1.25;;;0.88;;
59006;SDS011;44792;52.760;6.726;2022-09-27T05:17:01;3.97;;;1.27;;
59006;SDS011;44792;52.760;6.726;2022-09-27T05:19:26;3.17;;;1.20;;
59006;SDS011;44792;52.760;6.726;2022-09-27T05:21:52;4.55;;;1.45;;
59006;SDS011;44792;52.760;6.726;2022-09-27T05:24:18;4.93;;;1.40;;
59006;SDS011;44792;52.760;6.726;2022-09-27T05:26:45;2.10;;;1.20;;
59006;SDS011;44792;52.760;6.726;2022-09-27T05:29:11;2.10;;;1.25;;
59006;SDS011;44792;52.760;6.726;2022-09-27T05:31:37;2.03;;;1.92;;
59006;SDS011;44792;52.760;6.726;2022-09-27T05:34:03;3.65;;;1.20;;
59006;SDS011;44792;52.760;6.726;2022-09-27T05:36:28;6.00;;;1.40;;
59006;SDS011;44792;52.760;6.726;2022-09-27T05:38:54;3.33;;;1.20;;
59006;SDS011;44792;52.760;6.726;2022-09-27T05:41:20;4.22;;;1.17;;
59006;SDS011;44792;52.760;6.726;2022-09-27T05:43:45;0.98;;;0.93;;
59006;SDS011;44792;52.760;6.726;2022-09-27T05:46:11;1.70;;;1.10;;
59006;SDS011;44792;52.760;6.726;2022-09-27T05:48:37;3.33;;;1.17;;
59006;SDS011;44792;52.760;6.726;2022-09-27T05:51:02;1.00;;;1.00;;
59006;SDS011;44792;52.760;6.726;2022-09-27T05:53:28;3.45;;;1.00;;
59006;SDS011;44792;52.760;6.726;2022-09-27T05:55:54;3.17;;;1.00;;
59006;SDS011;44792;52.760;6.726;2022-09-27T05:58:19;2.40;;;1.05;;
59006;SDS011;44792;52.760;6.726;2022-09-27T06:00:45;5.65;;;1.20;;
59006;SDS011;44792;52.760;6.726;2022-09-27T06:03:11;5.13;;;1.13;;
59006;SDS011;44792;52.760;6.726;2022-09-27T06:05:38;4.35;;;1.10;;
59006;SDS011;44792;52.760;6.726;2022-09-27T06:08:06;4.63;;;1.38;;
59006;SDS011;44792;52.760;6.726;2022-09-27T06:10:34;1.38;;;1.17;;
59006;SDS011;44792;52.760;6.726;2022-09-27T06:13:00;2.58;;;1.30;;
59006;SDS011;44792;52.760;6.726;2022-09-27T06:15:32;2.67;;;1.30;;
59006;SDS011;44792;52.760;6.726;2022-09-27T06:18:08;3.72;;;1.38;;
59006;SDS011;44792;52.760;6.726;2022-09-27T06:20:40;3.22;;;1.35;;
59006;SDS011;44792;52.760;6.726;2022-09-27T06:23:08;2.15;;;1.38;;
59006;SDS011;44792;52.760;6.726;2022-09-27T06:25:35;2.70;;;1.30;;
59006;SDS011;44792;52.760;6.726;2022-09-27T06:28:02;2.45;;;1.40;;
59006;SDS011;44792;52.760;6.726;2022-09-27T06:30:28;2.80;;;1.30;;
59006;SDS011;44792;52.760;6.726;2022-09-27T06:32:57;4.22;;;1.38;;
59006;SDS011;44792;52.760;6.726;2022-09-27T06:35:24;2.85;;;1.15;;
59006;SDS011;44792;52.760;6.726;2022-09-27T06:37:51;3.50;;;1.55;;
59006;SDS011;44792;52.760;6.726;2022-09-27T06:40:17;3.90;;;1.80;;
59006;SDS011;44792;52.760;6.726;2022-09-27T06:42:43;3.42;;;1.27;;
59006;SDS011;44792;52.760;6.726;2022-09-27T06:45:09;1.95;;;1.35;;
59006;SDS011;44792;52.760;6.726;2022-09-27T06:47:36;7.43;;;1.77;;
59006;SDS011;44792;52.760;6.726;2022-09-27T06:50:02;6.65;;;1.50;;
59006;SDS011;44792;52.760;6.726;2022-09-27T06:52:30;3.25;;;1.40;;
59006;SDS011;44792;52.760;6.726;2022-09-27T06:54:56;8.13;;;1.70;;
59006;SDS011;44792;52.760;6.726;2022-09-27T06:57:21;5.65;;;1.25;;
59006;SDS011;44792;52.760;6.726;2022-09-27T07:00:05;10.18;;;1.30;;
59006;SDS011;44792;52.760;6.726;2022-09-27T07:02:50;6.38;;;1.58;;
59006;SDS011;44792;52.760;6.726;2022-09-27T07:05:17;3.95;;;1.45;;
59006;SDS011;44792;52.760;6.726;2022-09-27T07:07:43;4.15;;;1.35;;
59006;SDS011;44792;52.760;6.726;2022-09-27T07:10:10;5.15;;;1.63;;
59006;SDS011;44792;52.760;6.726;2022-09-27T07:12:36;4.88;;;1.38;;
59006;SDS011;44792;52.760;6.726;2022-09-27T07:15:02;3.83;;;1.33;;
59006;SDS011;44792;52.760;6.726;2022-09-27T07:17:28;5.05;;;1.40;;
59006;SDS011;44792;52.760;6.726;2022-09-27T07:19:53;2.80;;;1.42;;
59006;SDS011;44792;52.760;6.726;2022-09-27T07:22:19;3.22;;;1.30;;
59006;SDS011;44792;52.760;6.726;2022-09-27T07:24:45;4.85;;;1.50;;
59006;SDS011;44792;52.760;6.726;2022-09-27T07:27:10;3.90;;;1.33;;
59006;SDS011;44792;52.760;6.726;2022-09-27T07:29:36;5.53;;;1.50;;
59006;SDS011;44792;52.760;6.726;2022-09-27T07:32:02;3.20;;;1.13;;
59006;SDS011;44792;52.760;6.726;2022-09-27T07:34:28;5.68;;;1.77;;
59006;SDS011;44792;52.760;6.726;2022-09-27T07:36:57;3.65;;;1.33;;
59006;SDS011;44792;52.760;6.726;2022-09-27T07:39:27;3.28;;;1.20;;
59006;SDS011;44792;52.760;6.726;2022-09-27T07:41:52;6.88;;;1.50;;
59006;SDS011;44792;52.760;6.726;2022-09-27T07:44:18;3.03;;;1.30;;
59006;SDS011;44792;52.760;6.726;2022-09-27T07:46:43;6.13;;;1.27;;
59006;SDS011;44792;52.760;6.726;2022-09-27T07:49:09;5.05;;;1.40;;
59006;SDS011;44792;52.760;6.726;2022-09-27T07:51:34;2.85;;;0.88;;
59006;SDS011;44792;52.760;6.726;2022-09-27T07:54:00;3.58;;;1.08;;
59006;SDS011;44792;52.760;6.726;2022-09-27T07:56:26;4.00;;;0.93;;
59006;SDS011;44792;52.760;6.726;2022-09-27T07:58:52;3.15;;;1.20;;
59006;SDS011;44792;52.760;6.726;2022-09-27T08:01:17;4.28;;;1.10;;
59006;SDS011;44792;52.760;6.726;2022-09-27T08:03:43;3.65;;;1.10;;
59006;SDS011;44792;52.760;6.726;2022-09-27T08:06:10;3.63;;;0.90;;
59006;SDS011;44792;52.760;6.726;2022-09-27T08:08:36;2.05;;;0.93;;
59006;SDS011;44792;52.760;6.726;2022-09-27T08:11:12;5.30;;;1.10;;
59006;SDS011;44792;52.760;6.726;2022-09-27T08:13:39;2.50;;;1.20;;
59006;SDS011;44792;52.760;6.726;2022-09-27T08:16:05;3.53;;;1.30;;
59006;SDS011;44792;52.760;6.726;2022-09-27T08:18:31;3.40;;;1.20;;
59006;SDS011;44792;52.760;6.726;2022-09-27T08:20:57;6.93;;;1.20;;
59006;SDS011;44792;52.760;6.726;2022-09-27T08:23:23;7.75;;;1.60;;
59006;SDS011;44792;52.760;6.726;2022-09-27T08:25:52;5.97;;;1.50;;
59006;SDS011;44792;52.760;6.726;2022-09-27T08:28:19;2.97;;;1.30;;
59006;SDS011;44792;52.760;6.726;2022-09-27T08:30:47;3.17;;;1.00;;
59006;SDS011;44792;52.760;6.726;2022-09-27T08:33:13;0.90;;;0.88;;
59006;SDS011;44792;52.760;6.726;2022-09-27T08:35:38;1.75;;;1.13;;
59006;SDS011;44792;52.760;6.726;2022-09-27T08:38:04;3.85;;;1.38;;
59006;SDS011;44792;52.760;6.726;2022-09-27T08:40:33;5.60;;;1.45;;
59006;SDS011;44792;52.760;6.726;2022-09-27T08:48:35;3.30;;;1.20;;
59006;SDS011;44792;52.760;6.726;2022-09-27T08:51:02;1.33;;;1.00;;
59006;SDS011;44792;52.760;6.726;2022-09-27T08:53:32;2.33;;;1.00;;
59006;SDS011;44792;52.760;6.726;2022-09-27T08:56:05;5.10;;;0.85;;
59006;SDS011;44792;52.760;6.726;2022-09-27T08:58:33;4.00;;;1.05;;
59006;SDS011;44792;52.760;6.726;2022-09-27T09:01:25;4.47;;;1.63;;
59006;SDS011;44792;52.760;6.726;2022-09-27T09:03:55;1.70;;;1.02;;
59006;SDS011;44792;52.760;6.726;2022-09-27T09:09:02;1.30;;;0.88;;
59006;SDS011;44792;52.760;6.726;2022-09-27T09:17:19;1.95;;;0.80;;
59006;SDS011;44792;52.760;6.726;2022-09-27T09:19:52;2.50;;;1.15;;
59006;SDS011;44792;52.760;6.726;2022-09-27T09:22:53;0.90;;;0.70;;
59006;SDS011;44792;52.760;6.726;2022-09-27T09:28:17;1.67;;;0.90;;
59006;SDS011;44792;52.760;6.726;2022-09-27T09:34:27;3.67;;;1.40;;
59006;SDS011;44792;52.760;6.726;2022-09-27T09:36:56;3.08;;;1.10;;
59006;SDS011;44792;52.760;6.726;2022-09-27T09:40:00;2.15;;;1.13;;
59006;SDS011;44792;52.760;6.726;2022-09-27T09:42:34;2.25;;;1.10;;
59006;SDS011;44792;52.760;6.726;2022-09-27T09:45:20;2.85;;;1.10;;
59006;SDS011;44792;52.760;6.726;2022-09-27T09:47:51;2.58;;;1.20;;
59006;SDS011;44792;52.760;6.726;2022-09-27T09:50:27;5.93;;;1.05;;
59006;SDS011;44792;52.760;6.726;2022-09-27T09:53:08;3.08;;;1.10;;
59006;SDS011;44792;52.760;6.726;2022-09-27T09:55:40;4.20;;;0.80;;
59006;SDS011;44792;52.760;6.726;2022-09-27T10:00:53;2.78;;;0.80;;
59006;SDS011;44792;52.760;6.726;2022-09-27T10:03:24;0.98;;;0.93;;
59006;SDS011;44792;52.760;6.726;2022-09-27T10:05:50;2.38;;;0.90;;
59006;SDS011;44792;52.760;6.726;2022-09-27T10:08:17;1.02;;;0.80;;
59006;SDS011;44792;52.760;6.726;2022-09-27T10:10:44;1.73;;;0.82;;
59006;SDS011;44792;52.760;6.726;2022-09-27T10:13:20;1.48;;;0.60;;
59006;SDS011;44792;52.760;6.726;2022-09-27T10:15:52;1.98;;;0.80;;
59006;SDS011;44792;52.760;6.726;2022-09-27T10:18:31;0.93;;;0.75;;
59006;SDS011;44792;52.760;6.726;2022-09-27T10:21:00;0.75;;;0.70;;
59006;SDS011;44792;52.760;6.726;2022-09-27T10:23:28;0.77;;;0.60;;
59006;SDS011;44792;52.760;6.726;2022-09-27T10:26:00;1.05;;;0.85;;
59006;SDS011;44792;52.760;6.726;2022-09-27T10:28:36;0.80;;;0.80;;
59006;SDS011;44792;52.760;6.726;2022-09-27T10:31:05;0.60;;;0.60;;
59006;SDS011;44792;52.760;6.726;2022-09-27T10:33:32;1.88;;;0.70;;
59006;SDS011;44792;52.760;6.726;2022-09-27T10:35:59;0.70;;;0.60;;
59006;SDS011;44792;52.760;6.726;2022-09-27T10:38:35;1.40;;;0.80;;
59006;SDS011;44792;52.760;6.726;2022-09-27T10:43:50;1.42;;;0.88;;
59006;SDS011;44792;52.760;6.726;2022-09-27T10:46:20;1.98;;;0.95;;
59006;SDS011;44792;52.760;6.726;2022-09-27T10:51:53;1.83;;;0.60;;
59006;SDS011;44792;52.760;6.726;2022-09-27T10:54:22;0.60;;;0.60;;
59006;SDS011;44792;52.760;6.726;2022-09-27T10:56:55;1.23;;;0.98;;
59006;SDS011;44792;52.760;6.726;2022-09-27T11:02:29;0.88;;;0.88;;
59006;SDS011;44792;52.760;6.726;2022-09-27T11:05:40;1.02;;;0.93;;
59006;SDS011;44792;52.760;6.726;2022-09-27T11:07:57;0.70;;;0.70;;
59006;SDS011;44792;52.760;6.726;2022-09-27T11:10:30;2.97;;;0.80;;
59006;SDS011;44792;52.760;6.726;2022-09-27T11:13:07;0.73;;;0.70;;
59006;SDS011;44792;52.760;6.726;2022-09-27T11:15:45;4.65;;;0.80;;
59006;SDS011;44792;52.760;6.726;2022-09-27T11:27:17;1.73;;;0.70;;
59006;SDS011;44792;52.760;6.726;2022-09-27T11:30:12;2.15;;;0.95;;
59006;SDS011;44792;52.760;6.726;2022-09-27T11:38:09;1.08;;;0.60;;
59006;SDS011;44792;52.760;6.726;2022-09-27T11:41:00;0.95;;;0.73;;
59006;SDS011;44792;52.760;6.726;2022-09-27T11:46:33;1.05;;;0.52;;
59006;SDS011;44792;52.760;6.726;2022-09-27T11:52:17;1.20;;;0.55;;
59006;SDS011;44792;52.760;6.726;2022-09-27T11:57:46;1.33;;;0.85;;
59006;SDS011;44792;52.760;6.726;2022-09-27T12:00:23;2.35;;;0.52;;
59006;SDS011;44792;52.760;6.726;2022-09-27T12:03:19;0.55;;;0.52;;
59006;SDS011;44792;52.760;6.726;2022-09-27T12:06:12;0.60;;;0.52;;
59006;SDS011;44792;52.760;6.726;2022-09-27T12:08:48;1.70;;;0.60;;
59006;SDS011;44792;52.760;6.726;2022-09-27T12:11:42;0.50;;;0.50;;
59006;SDS011;44792;52.760;6.726;2022-09-27T12:14:19;1.58;;;0.60;;
59006;SDS011;44792;52.760;6.726;2022-09-27T12:17:01;2.72;;;0.77;;
59006;SDS011;44792;52.760;6.726;2022-09-27T12:19:36;2.88;;;0.80;;
59006;SDS011;44792;52.760;6.726;2022-09-27T12:22:06;0.82;;;0.60;;
59006;SDS011;44792;52.760;6.726;2022-09-27T12:24:38;0.50;;;0.50;;
59006;SDS011;44792;52.760;6.726;2022-09-27T12:27:08;0.73;;;0.60;;
59006;SDS011;44792;52.760;6.726;2022-09-27T12:29:43;0.65;;;0.55;;
59006;SDS011;44792;52.760;6.726;2022-09-27T12:32:13;0.85;;;0.63;;
59006;SDS011;44792;52.760;6.726;2022-09-27T12:34:59;0.80;;;0.60;;
59006;SDS011;44792;52.760;6.726;2022-09-27T12:37:30;0.85;;;0.50;;
59006;SDS011;44792;52.760;6.726;2022-09-27T12:40:02;4.13;;;0.60;;
59006;SDS011;44792;52.760;6.726;2022-09-27T12:45:10;2.83;;;0.50;;
59006;SDS011;44792;52.760;6.726;2022-09-27T12:47:42;4.68;;;0.60;;
59006;SDS011;44792;52.760;6.726;2022-09-27T12:50:39;3.28;;;0.98;;
59006;SDS011;44792;52.760;6.726;2022-09-27T12:53:20;3.53;;;1.42;;
59006;SDS011;44792;52.760;6.726;2022-09-27T12:55:56;4.50;;;0.93;;
59006;SDS011;44792;52.760;6.726;2022-09-27T13:02:14;2.58;;;0.88;;
59006;SDS011;44792;52.760;6.726;2022-09-27T13:04:55;2.75;;;0.80;;
59006;SDS011;44792;52.760;6.726;2022-09-27T13:10:47;1.35;;;0.82;;
59006;SDS011;44792;52.760;6.726;2022-09-27T13:13:36;4.68;;;0.90;;
59006;SDS011;44792;52.760;6.726;2022-09-27T13:16:03;3.70;;;0.95;;
59006;SDS011;44792;52.760;6.726;2022-09-27T13:32:32;1.15;;;0.80;;
59006;SDS011;44792;52.760;6.726;2022-09-27T13:35:09;1.77;;;0.80;;
59006;SDS011;44792;52.760;6.726;2022-09-27T13:48:17;1.23;;;0.68;;
59006;SDS011;44792;52.760;6.726;2022-09-27T13:50:50;2.20;;;0.55;;
59006;SDS011;44792;52.760;6.726;2022-09-27T13:55:55;2.10;;;0.93;;
59006;SDS011;44792;52.760;6.726;2022-09-27T14:01:10;4.38;;;1.10;;
59006;SDS011;44792;52.760;6.726;2022-09-27T14:03:58;1.92;;;0.80;;
59006;SDS011;44792;52.760;6.726;2022-09-27T14:06:56;1.77;;;0.98;;
59006;SDS011;44792;52.760;6.726;2022-09-27T14:09:28;4.95;;;1.15;;
59006;SDS011;44792;52.760;6.726;2022-09-27T14:12:00;1.95;;;1.13;;
59006;SDS011;44792;52.760;6.726;2022-09-27T14:14:43;1.73;;;0.95;;
59006;SDS011;44792;52.760;6.726;2022-09-27T14:17:11;1.38;;;0.90;;
59006;SDS011;44792;52.760;6.726;2022-09-27T14:19:40;1.70;;;1.02;;
59006;SDS011;44792;52.760;6.726;2022-09-27T14:22:13;1.83;;;0.95;;
59006;SDS011;44792;52.760;6.726;2022-09-27T14:27:14;3.67;;;0.70;;
59006;SDS011;44792;52.760;6.726;2022-09-27T14:32:17;1.23;;;0.73;;
59006;SDS011;44792;52.760;6.726;2022-09-27T14:38:14;0.63;;;0.52;;
59006;SDS011;44792;52.760;6.726;2022-09-27T14:41:03;1.27;;;0.77;;
59006;SDS011;44792;52.760;6.726;2022-09-27T14:43:31;2.92;;;0.90;;
59006;SDS011;44792;52.760;6.726;2022-09-27T14:45:59;0.93;;;0.80;;
59006;SDS011;44792;52.760;6.726;2022-09-27T14:48:31;2.35;;;0.95;;
59006;SDS011;44792;52.760;6.726;2022-09-27T14:51:02;1.73;;;0.95;;
59006;SDS011;44792;52.760;6.726;2022-09-27T14:53:53;1.37;;;0.80;;
59006;SDS011;44792;52.760;6.726;2022-09-27T14:56:29;3.47;;;1.17;;
59006;SDS011;44792;52.760;6.726;2022-09-27T14:59:00;2.17;;;1.17;;
59006;SDS011;44792;52.760;6.726;2022-09-27T15:01:27;2.42;;;0.95;;
59006;SDS011;44792;52.760;6.726;2022-09-27T15:03:55;2.17;;;1.00;;
59006;SDS011;44792;52.760;6.726;2022-09-27T15:06:26;4.00;;;1.48;;
59006;SDS011;44792;52.760;6.726;2022-09-27T15:08:52;2.83;;;1.08;;
59006;SDS011;44792;52.760;6.726;2022-09-27T15:11:19;1.05;;;0.95;;
59006;SDS011;44792;52.760;6.726;2022-09-27T15:13:45;4.07;;;1.20;;
59006;SDS011;44792;52.760;6.726;2022-09-27T15:16:16;4.35;;;0.93;;
59006;SDS011;44792;52.760;6.726;2022-09-27T15:19:10;2.35;;;0.95;;
59006;SDS011;44792;52.760;6.726;2022-09-27T15:21:48;2.30;;;1.00;;
59006;SDS011;44792;52.760;6.726;2022-09-27T15:27:15;2.30;;;1.20;;
59006;SDS011;44792;52.760;6.726;2022-09-27T15:29:49;3.83;;;1.17;;
59006;SDS011;44792;52.760;6.726;2022-09-27T15:32:16;2.15;;;1.10;;
59006;SDS011;44792;52.760;6.726;2022-09-27T15:34:46;4.53;;;1.40;;
59006;SDS011;44792;52.760;6.726;2022-09-27T15:40:00;5.43;;;1.50;;
59006;SDS011;44792;52.760;6.726;2022-09-27T15:42:55;3.70;;;1.27;;
59006;SDS011;44792;52.760;6.726;2022-09-27T15:45:29;3.08;;;1.20;;
59006;SDS011;44792;52.760;6.726;2022-09-27T15:48:05;1.83;;;1.17;;
59006;SDS011;44792;52.760;6.726;2022-09-27T15:50:34;3.38;;;1.30;;
59006;SDS011;44792;52.760;6.726;2022-09-27T15:53:00;3.20;;;1.13;;
59006;SDS011;44792;52.760;6.726;2022-09-27T15:55:27;2.55;;;1.13;;
59006;SDS011;44792;52.760;6.726;2022-09-27T16:00:30;2.78;;;1.20;;
59006;SDS011;44792;52.760;6.726;2022-09-27T16:02:55;5.95;;;1.80;;
59006;SDS011;44792;52.760;6.726;2022-09-27T16:05:21;2.22;;;1.20;;
59006;SDS011;44792;52.760;6.726;2022-09-27T16:07:48;4.35;;;1.40;;
59006;SDS011;44792;52.760;6.726;2022-09-27T16:10:18;4.75;;;1.70;;
59006;SDS011;44792;52.760;6.726;2022-09-27T16:12:45;4.82;;;1.10;;
59006;SDS011;44792;52.760;6.726;2022-09-27T16:15:11;3.95;;;1.63;;
59006;SDS011;44792;52.760;6.726;2022-09-27T16:17:38;5.70;;;1.48;;
59006;SDS011;44792;52.760;6.726;2022-09-27T16:20:06;2.65;;;1.35;;
59006;SDS011;44792;52.760;6.726;2022-09-27T16:22:45;3.92;;;0.93;;
59006;SDS011;44792;52.760;6.726;2022-09-27T16:25:11;3.13;;;1.17;;
59006;SDS011;44792;52.760;6.726;2022-09-27T16:27:36;6.45;;;1.90;;
59006;SDS011;44792;52.760;6.726;2022-09-27T16:30:02;4.55;;;1.67;;
59006;SDS011;44792;52.760;6.726;2022-09-27T16:32:28;2.45;;;1.13;;
59006;SDS011;44792;52.760;6.726;2022-09-27T16:34:54;3.33;;;1.30;;
59006;SDS011;44792;52.760;6.726;2022-09-27T16:37:21;2.72;;;1.20;;
59006;SDS011;44792;52.760;6.726;2022-09-27T16:39:47;2.97;;;1.10;;
59006;SDS011;44792;52.760;6.726;2022-09-27T16:42:12;3.05;;;1.00;;
59006;SDS011;44792;52.760;6.726;2022-09-27T16:44:39;3.65;;;1.17;;
59006;SDS011;44792;52.760;6.726;2022-09-27T16:47:04;4.47;;;1.50;;
59006;SDS011;44792;52.760;6.726;2022-09-27T16:49:31;4.13;;;1.58;;
59006;SDS011;44792;52.760;6.726;2022-09-27T16:52:15;4.95;;;1.20;;
59006;SDS011;44792;52.760;6.726;2022-09-27T16:54:41;3.83;;;1.55;;
59006;SDS011;44792;52.760;6.726;2022-09-27T16:57:07;2.22;;;1.30;;
59006;SDS011;44792;52.760;6.726;2022-09-27T16:59:33;2.28;;;1.50;;
59006;SDS011;44792;52.760;6.726;2022-09-27T17:01:58;3.67;;;1.98;;
59006;SDS011;44792;52.760;6.726;2022-09-27T17:04:24;2.10;;;1.70;;
59006;SDS011;44792;52.760;6.726;2022-09-27T17:06:51;6.70;;;2.53;;
59006;SDS011;44792;52.760;6.726;2022-09-27T17:09:17;3.33;;;2.10;;
59006;SDS011;44792;52.760;6.726;2022-09-27T17:11:43;3.97;;;2.60;;
59006;SDS011;44792;52.760;6.726;2022-09-27T17:14:12;3.55;;;2.10;;
59006;SDS011;44792;52.760;6.726;2022-09-27T17:16:44;3.42;;;2.30;;
59006;SDS011;44792;52.760;6.726;2022-09-27T17:19:11;4.75;;;2.50;;
59006;SDS011;44792;52.760;6.726;2022-09-27T17:21:37;3.90;;;2.28;;
59006;SDS011;44792;52.760;6.726;2022-09-27T17:24:03;4.10;;;2.00;;
59006;SDS011;44792;52.760;6.726;2022-09-27T17:26:29;4.35;;;2.00;;
59006;SDS011;44792;52.760;6.726;2022-09-27T17:28:55;6.22;;;2.40;;
59006;SDS011;44792;52.760;6.726;2022-09-27T17:31:22;2.63;;;1.80;;
59006;SDS011;44792;52.760;6.726;2022-09-27T17:33:49;7.10;;;1.92;;
59006;SDS011;44792;52.760;6.726;2022-09-27T17:36:20;3.47;;;1.83;;
59006;SDS011;44792;52.760;6.726;2022-09-27T17:38:48;2.25;;;1.80;;
59006;SDS011;44792;52.760;6.726;2022-09-27T17:41:16;5.13;;;2.22;;